Logo AVAMET
Benvolgut visitant, si us plau, ingressa Recuperar contrasenya

Fontanars poble

Dades diàries. Acumulats / Últims 30 dies disponibles

Data Temperatura (°C) Humitat rel. (%) Pressió rel. (hPa) Vent (km/h) Precipi-
tació (mm)
Mínima Mitjana Màxima Mínima Mitjana Màxima Mínima Mitjana Màxima Predom. Mitjana Ràfega
màxima
Mínima Mitjana Màxima Mínima Mitjana Màxima
Dades mensuals acumulades fins l'últim dia disponible
11/2017 -1,4 4,1 9,4 10,3 13,2 17,5 22,8   2,9 45,1 0,2
Dades anuals acumulades fins l'últim dia disponible
2017 -5,9 10,3 21,3 16,0 1,4 22,7 40,9   5,1 82,1 283,4
Últims 30 dies disponibles
18-11-2017 3,4     9,9     20,4 E 1,6 14,5 0,0
17-11-2017 2,4     8,5     17,5 W 1,0 14,5 0,0
16-11-2017 2,2     8,0     16,4 ESE 1,6 19,3 0,0
15-11-2017 -1,4     7,2     17,3 W 2,9 29,0 0,0
14-11-2017 -0,6     5,4     15,3 W 1,9 19,3 0,0
13-11-2017 2,7     10,6     14,4 NNE 8,7 45,1 0,0
12-11-2017 4,7     12,3     19,7 W 4,3 29,0 0,0
11-11-2017 4,3     11,2     19,5 WSW 0,8 17,7 0,0
10-11-2017 0,2     7,3     14,9 NE 1,3 24,1 0,0
09-11-2017 1,3     7,6     13,2 ESE 2,1 29,0 0,0
08-11-2017 4,4     10,3     16,9 WNW 2,6 27,4 0,0
07-11-2017 2,2     8,9     15,8 WSW 2,9 22,5 0,0
06-11-2017 4,4     8,9     14,2 NW 4,0 27,4 0,0
05-11-2017 7,3     13,1     18,0 NW 7,7 37,0 0,0
04-11-2017 9,2     13,8     18,2 W 3,7 32,2 0,0
03-11-2017 9,0     13,7     22,8 W 0,8 12,9 0,2
02-11-2017 9,1     13,7     20,7 S 1,0 14,5 0,0
01-11-2017 9,4     14,4     20,6 S 2,4 22,5 0,0
31-10-2017 12,0     14,0     17,6 E 4,3 24,1 0,0
30-10-2017 7,5     13,8     22,1 E 1,3 17,7 0,2
29-10-2017 11,4     15,9     22,2 W 1,8 16,1 0,0
28-10-2017 11,1     15,8     21,6 E 2,3 19,3 0,0
27-10-2017 9,5     18,3     29,7 W 0,8 17,7 0,0
26-10-2017 9,1     16,7     27,2 W 2,3 19,3 0,0
25-10-2017 9,6     17,1     26,2 W 3,1 20,9 0,0
24-10-2017 7,9     16,1     25,6 W 2,4 19,3 0,2
23-10-2017 8,9     14,8     22,7 W 1,6 17,7 0,0
22-10-2017 11,6     16,3     22,9 E 2,9 17,7 0,0
21-10-2017 10,8     16,9     25,2 W 2,3 29,0 0,0
20-10-2017 11,1     16,2     22,2 NW 5,1 32,2 0,0
Últims 13 mesos disponibles
10/2017 7,5 11,6 16,2 17,1 17,1 24,6 29,8 2,8 46,7 9,8
09/2017 10,5 14,0 19,1 19,7 19,1 26,6 31,9 4,3 41,8 3,2
08/2017 13,0 17,7 20,9 23,5 21,7 30,3 37,3 4,2 48,3 37,2
07/2017 11,3 17,7 20,4 24,1 22,4 32,1 40,9 4,2 41,8 21,8
06/2017 9,7 15,9 21,3 23,0 21,3 30,6 38,1 4,1 66,0 13,6
05/2017 5,9 10,5 12,8 17,4 16,7 24,5 32,4 4,8 53,1 1,8
04/2017 2,6 6,9 13,3 13,0 8,1 19,7 27,6 5,2 51,5 12,8
03/2017 0,9 5,7 11,0 11,5 7,8 18,0 27,7 7,6 69,2 90,8
02/2017 -1,2 4,9 9,1 8,7 9,1 13,4 18,6 8,1 82,1 11,4
01/2017 -5,9 1,8 8,1 5,8 1,4 10,4 17,8 6,8 72,4 80,8
12/2016 0,7 4,8 10,5 7,9 7,3 11,9 18,1 4,7 57,9 256,4
11/2016 1,5 6,2 13,7 10,4 9,4 15,1 24,4 4,4 57,9 50,0
10/2016 6,5 12,6 16,1 16,9 14,7 22,8 29,6 3,1 43,5 35,6
Tots els anys disponibles
2016 -3,3 9,7 26,1 15,1 6,8 21,2 38,4 5,8 85,3 512,8
2015 -4,7 10,0 21,9 15,4 4,6 21,8 40,3 5,3 91,7 332,4
2014 -3,3 10,1 20,9 15,4 5,2 21,6 36,9 6,6 85,3 328,0
2013 -3,7 9,0 12,7 14,3 16,1 20,4 36,8 6,8 90,1 417,0
2012 -7,9 9,2 15,6 14,9 18,0 21,5 41,8 5,7 77,2 467,0
2011 -6,5 10,0 20,1 15,0 1,7 21,1 37,8 5,3 80,5 400,8
2010 -5,7 9,2 22,4 14,0 -1,2 19,7 38,9 6,8 88,5 495,2
Temperatura (°C)
Humitat relativa (%)
Velocitat del vent (km/h) i direcció (°)
Pressió (hPa) i precipitació (mm)
Nota sobre les dades: s'avisa a l'usuari de la provisionalitat i no oficialitat d'aquestes dades
Logo AVAMET blanc
Llicència de Creative CommonsLa web d'AVAMET i els seus continguts estan subjectes a una llicència de
Reconeixement - No Comercial - Compartir igual
Properes estacions: Los Isidros, Los Ruices (soci), Albocàsser - la Llacuna (AMEAL) - - - Últimes estacions: Sagunt - Racó de Gausa (soci), Sagunt - els Arenals (soci), El Puig - la Lloma (soci), Nàquera - Germanells (soci) - - - - - - - - - - - - Properes estacions: Los Isidros, Los Ruices (soci), Albocàsser - la Llacuna (AMEAL) - - - Últimes estacions: Sagunt - Racó de Gausa (soci), Sagunt - els Arenals (soci), El Puig - la Lloma (soci), Nàquera - Germanells (soci)